createdAt,value
2017-08-26T00:01:41.098Z,68.40
2017-08-26T00:06:43.707Z,68.20
2017-08-26T00:11:46.346Z,68.40
2017-08-26T00:16:48.957Z,68.80
2017-08-26T00:21:51.560Z,69.20
2017-08-26T00:26:54.149Z,69.30
2017-08-26T00:31:56.808Z,69.50
2017-08-26T00:36:59.415Z,69.20
2017-08-26T00:42:02.037Z,69.20
2017-08-26T00:47:04.658Z,69.50
2017-08-26T00:52:07.298Z,69.90
2017-08-26T00:57:09.920Z,69.80
2017-08-26T01:02:12.537Z,69.60
2017-08-26T01:07:21.067Z,70.00
2017-08-26T01:12:23.678Z,70.00
2017-08-26T01:17:27.049Z,70.20
2017-08-26T01:22:29.685Z,70.00
2017-08-26T01:27:32.369Z,69.70
2017-08-26T01:32:35.067Z,69.80
2017-08-26T01:37:38.012Z,69.90
2017-08-26T01:42:40.607Z,70.10
2017-08-26T01:47:43.197Z,70.00
2017-08-26T01:52:45.823Z,69.50
2017-08-26T01:57:48.443Z,69.40
2017-08-26T02:02:51.118Z,69.20
2017-08-26T02:07:53.748Z,69.30
2017-08-26T02:12:56.355Z,69.10
2017-08-26T02:17:58.974Z,69.50
2017-08-26T02:23:01.597Z,69.20
2017-08-26T02:28:04.272Z,69.70
2017-08-26T02:33:06.879Z,69.50
2017-08-26T02:38:09.473Z,69.80
2017-08-26T02:43:12.162Z,70.10
2017-08-26T02:48:14.773Z,69.90
2017-08-26T02:53:17.401Z,69.70
2017-08-26T02:58:20.006Z,69.80
2017-08-26T03:03:22.593Z,69.60
2017-08-26T03:08:25.200Z,69.00
2017-08-26T03:13:27.838Z,69.00
2017-08-26T03:18:30.428Z,69.40
2017-08-26T03:23:33.017Z,69.50
2017-08-26T03:28:35.638Z,69.20
2017-08-26T03:33:38.245Z,69.30
2017-08-26T03:38:40.853Z,69.40
2017-08-26T03:43:43.426Z,68.60
2017-08-26T03:48:46.032Z,69.10
2017-08-26T03:53:48.953Z,69.10
2017-08-26T03:58:51.576Z,69.00
2017-08-26T04:03:54.202Z,69.20
2017-08-26T04:08:56.792Z,69.20
2017-08-26T04:13:59.389Z,69.20
2017-08-26T04:19:02.609Z,69.30
2017-08-26T04:24:05.239Z,69.00
2017-08-26T04:29:08.675Z,69.20
2017-08-26T04:34:11.711Z,69.00
2017-08-26T04:39:14.585Z,69.70
2017-08-26T04:44:18.012Z,69.40
2017-08-26T04:49:20.599Z,69.30
2017-08-26T04:54:23.191Z,70.00
2017-08-26T04:59:25.821Z,69.60
2017-08-26T05:04:28.417Z,70.00
2017-08-26T05:09:31.067Z,70.20
2017-08-26T05:14:33.665Z,70.30
2017-08-26T05:19:36.305Z,69.80
2017-08-26T05:24:38.897Z,70.40
2017-08-26T05:29:41.507Z,70.30
2017-08-26T05:34:44.207Z,70.90
2017-08-26T05:39:46.810Z,71.00
2017-08-26T05:44:49.430Z,71.00
2017-08-26T05:49:52.018Z,71.40
2017-08-26T05:54:54.642Z,71.50
2017-08-26T05:59:57.282Z,71.80
2017-08-26T06:04:59.888Z,72.20
2017-08-26T06:10:02.512Z,70.90
2017-08-26T06:15:05.112Z,70.50
2017-08-26T06:20:07.755Z,70.00
2017-08-26T06:25:10.418Z,69.30
2017-08-26T06:30:13.044Z,68.50
2017-08-26T06:35:15.659Z,67.70
2017-08-26T06:40:18.267Z,67.50
2017-08-26T06:45:20.853Z,66.90
2017-08-26T06:50:23.454Z,65.90
2017-08-26T06:55:26.057Z,65.80
2017-08-26T07:00:29.207Z,65.10
2017-08-26T07:05:31.837Z,64.60
2017-08-26T07:10:34.452Z,63.60
2017-08-26T07:15:37.057Z,62.90
2017-08-26T07:20:39.682Z,63.00
2017-08-26T07:25:42.339Z,62.40
2017-08-26T07:30:44.922Z,62.20
2017-08-26T07:35:47.526Z,62.10
2017-08-26T07:40:50.158Z,61.20
2017-08-26T07:45:54.333Z,61.40
2017-08-26T07:50:56.963Z,60.90
2017-08-26T07:55:59.581Z,60.80
2017-08-26T08:01:02.168Z,60.40
2017-08-26T08:06:04.781Z,60.00
2017-08-26T08:11:07.386Z,59.40
2017-08-26T08:16:09.987Z,59.20
2017-08-26T08:21:12.594Z,59.50
2017-08-26T08:26:15.204Z,58.20
2017-08-26T08:31:18.364Z,58.40
2017-08-26T08:36:21.062Z,58.10
2017-08-26T08:41:23.680Z,57.90
2017-08-26T08:46:26.285Z,57.50
2017-08-26T08:51:28.899Z,57.20
2017-08-26T08:56:31.534Z,56.90
2017-08-26T09:01:34.140Z,56.70
2017-08-26T09:06:36.722Z,56.40
2017-08-26T09:11:39.331Z,56.20
2017-08-26T09:16:41.979Z,55.80
2017-08-26T09:21:44.577Z,55.30
2017-08-26T09:26:47.198Z,55.10
2017-08-26T09:31:49.797Z,54.60
2017-08-26T09:36:52.388Z,54.30
2017-08-26T09:41:55.005Z,53.90
2017-08-26T09:46:57.609Z,53.80
2017-08-26T09:52:00.242Z,52.70
2017-08-26T09:57:02.824Z,53.00
2017-08-26T10:02:05.434Z,53.10
2017-08-26T10:07:08.042Z,52.50
2017-08-26T10:12:10.660Z,51.80
2017-08-26T10:17:13.282Z,51.80
2017-08-26T10:22:15.938Z,51.50
2017-08-26T10:27:18.552Z,51.30
2017-08-26T10:32:21.249Z,50.20
2017-08-26T10:37:25.023Z,49.90
2017-08-26T10:42:27.634Z,49.90
2017-08-26T10:47:30.266Z,49.90
2017-08-26T10:52:33.005Z,49.20
2017-08-26T10:57:35.643Z,50.10
2017-08-26T11:02:38.274Z,48.10
2017-08-26T11:07:40.868Z,48.00
2017-08-26T11:12:43.475Z,47.00
2017-08-26T11:17:46.098Z,47.60
2017-08-26T11:22:49.482Z,43.90
2017-08-26T11:27:52.077Z,43.90
2017-08-26T11:32:54.666Z,44.20
2017-08-26T11:37:57.286Z,44.80
2017-08-26T11:42:59.878Z,42.50
2017-08-26T11:48:02.486Z,42.10
2017-08-26T11:53:05.096Z,41.70
2017-08-26T11:58:07.698Z,41.60
2017-08-26T12:03:10.296Z,42.80
2017-08-26T12:08:12.889Z,42.50
2017-08-26T12:13:15.497Z,43.50
2017-08-26T12:18:18.122Z,42.80
2017-08-26T12:23:20.761Z,41.60
2017-08-26T12:28:23.383Z,39.70
2017-08-26T12:33:25.993Z,38.90
2017-08-26T12:38:28.585Z,39.20
2017-08-26T12:43:31.930Z,39.80
2017-08-26T12:48:34.574Z,39.10
2017-08-26T12:53:37.184Z,40.00
2017-08-26T12:58:39.808Z,39.00
2017-08-26T13:03:42.411Z,38.80
2017-08-26T13:08:45.000Z,39.50
2017-08-26T13:13:47.609Z,39.10
2017-08-26T13:18:50.203Z,38.70
2017-08-26T13:23:52.827Z,38.50
2017-08-26T13:28:55.418Z,39.40
2017-08-26T13:33:58.053Z,40.00
2017-08-26T13:39:00.640Z,40.70
2017-08-26T13:44:03.258Z,38.50
2017-08-26T13:49:05.868Z,39.00
2017-08-26T13:54:08.507Z,39.10
2017-08-26T13:59:11.122Z,39.50
2017-08-26T14:04:14.021Z,40.40
2017-08-26T14:09:16.660Z,38.90
2017-08-26T14:14:19.278Z,38.70
2017-08-26T14:19:22.672Z,38.70
2017-08-26T14:24:25.333Z,38.70
2017-08-26T14:29:27.940Z,38.80
2017-08-26T14:34:30.546Z,37.70
2017-08-26T14:39:33.193Z,38.90
2017-08-26T14:44:35.809Z,38.90
2017-08-26T14:49:38.402Z,37.90
2017-08-26T14:54:41.065Z,38.70
2017-08-26T14:59:43.725Z,38.80
2017-08-26T15:04:46.318Z,38.30
2017-08-26T15:09:48.930Z,38.50
2017-08-26T15:14:51.618Z,39.70
2017-08-26T15:19:54.230Z,39.20
2017-08-26T15:24:56.895Z,39.20
2017-08-26T15:29:59.600Z,39.50
2017-08-26T15:35:02.215Z,39.20
2017-08-26T15:40:05.058Z,39.50
2017-08-26T15:45:07.658Z,39.60
2017-08-26T15:50:10.259Z,40.30
2017-08-26T15:55:12.890Z,40.10
2017-08-26T16:00:15.488Z,40.30
2017-08-26T16:05:18.137Z,41.10
2017-08-26T16:10:20.750Z,41.60
2017-08-26T16:15:23.389Z,41.60
2017-08-26T16:20:26.045Z,41.50
2017-08-26T16:25:28.655Z,41.70
2017-08-26T16:30:31.274Z,42.30
2017-08-26T16:35:33.896Z,42.80
2017-08-26T16:40:36.512Z,42.90
2017-08-26T16:45:39.123Z,42.70
2017-08-26T16:50:41.718Z,43.00
2017-08-26T16:55:44.318Z,43.00
2017-08-26T17:00:46.943Z,43.30
2017-08-26T17:05:49.562Z,43.60
2017-08-26T17:10:52.213Z,43.90
2017-08-26T17:15:54.827Z,43.90
2017-08-26T17:20:57.440Z,44.00
2017-08-26T17:26:00.062Z,44.40
2017-08-26T17:31:02.678Z,44.90
2017-08-26T17:36:05.262Z,45.40
2017-08-26T17:41:07.889Z,45.90
2017-08-26T17:46:10.509Z,46.10
2017-08-26T17:51:13.102Z,46.70
2017-08-26T17:56:15.703Z,47.30
2017-08-26T18:01:18.334Z,48.00
2017-08-26T18:06:20.943Z,48.40
2017-08-26T18:11:23.543Z,48.90
2017-08-26T18:16:26.215Z,49.20
2017-08-26T18:21:28.799Z,49.90
2017-08-26T18:26:31.401Z,50.30
2017-08-26T18:31:34.040Z,50.70
2017-08-26T18:36:36.658Z,50.90
2017-08-26T18:41:39.260Z,51.30
2017-08-26T18:46:41.897Z,51.20
2017-08-26T18:51:44.506Z,51.30
2017-08-26T18:56:47.118Z,51.10
2017-08-26T19:01:49.713Z,51.00
2017-08-26T19:06:52.322Z,51.10
2017-08-26T19:11:54.936Z,51.10
2017-08-26T19:16:57.554Z,51.00
2017-08-26T19:22:00.172Z,51.10
2017-08-26T19:27:02.767Z,51.20
2017-08-26T19:32:05.370Z,51.30
2017-08-26T19:37:07.960Z,51.50
2017-08-26T19:42:10.561Z,51.70
2017-08-26T19:47:13.163Z,51.80
2017-08-26T19:52:15.786Z,52.00
2017-08-26T19:57:18.431Z,52.30
2017-08-26T20:02:22.557Z,52.60
2017-08-26T20:07:25.169Z,52.80
2017-08-26T20:12:27.781Z,52.90
2017-08-26T20:17:30.370Z,53.20
2017-08-26T20:22:32.988Z,53.30
2017-08-26T20:27:35.592Z,53.60
2017-08-26T20:32:38.207Z,53.90
2017-08-26T20:37:40.797Z,54.20
2017-08-26T20:42:43.627Z,54.60
2017-08-26T20:47:46.278Z,55.20
2017-08-26T20:52:48.995Z,55.70
2017-08-26T20:57:51.582Z,55.90
2017-08-26T21:02:54.324Z,56.10
2017-08-26T21:07:57.015Z,56.20
2017-08-26T21:12:59.645Z,56.40
2017-08-26T21:18:02.544Z,56.60
2017-08-26T21:23:05.177Z,56.70
2017-08-26T21:28:07.854Z,56.70
2017-08-26T21:33:10.530Z,57.10
2017-08-26T21:38:13.166Z,57.40
2017-08-26T21:43:15.794Z,57.60
2017-08-26T21:48:18.989Z,58.00
2017-08-26T21:53:21.593Z,58.40
2017-08-26T21:58:24.225Z,58.40
2017-08-26T22:03:26.850Z,58.40
2017-08-26T22:08:29.482Z,58.90
2017-08-26T22:13:32.401Z,59.10
2017-08-26T22:18:35.034Z,59.20
2017-08-26T22:23:37.680Z,59.50
2017-08-26T22:28:40.269Z,59.90
2017-08-26T22:33:42.889Z,60.00
2017-08-26T22:38:45.506Z,60.20
2017-08-26T22:43:48.133Z,60.20
2017-08-26T22:48:50.739Z,60.80
2017-08-26T22:53:53.362Z,61.00
2017-08-26T22:58:55.975Z,61.10
2017-08-26T23:03:58.634Z,61.50
2017-08-26T23:09:01.226Z,61.80
2017-08-26T23:14:03.812Z,62.10
2017-08-26T23:19:06.433Z,62.40
2017-08-26T23:24:09.016Z,62.30
2017-08-26T23:29:11.614Z,62.20
2017-08-26T23:34:14.262Z,62.90
2017-08-26T23:39:16.867Z,63.00
2017-08-26T23:44:19.468Z,62.70
2017-08-26T23:49:22.098Z,63.00
2017-08-26T23:54:24.707Z,63.20
2017-08-26T23:59:27.344Z,63.50
